sensor_id;sensor_type;location;lat;lon;timestamp;temperature;humidity
44223;DHT22;29895;48.804;9.386;2023-10-08T00:01:18;12.10;99.90
44223;DHT22;29895;48.804;9.386;2023-10-08T00:03:48;12.10;99.90
44223;DHT22;29895;48.804;9.386;2023-10-08T00:06:18;12.20;99.90
44223;DHT22;29895;48.804;9.386;2023-10-08T00:08:46;12.20;99.90
44223;DHT22;29895;48.804;9.386;2023-10-08T00:11:12;12.20;99.90
44223;DHT22;29895;48.804;9.386;2023-10-08T00:13:38;12.30;99.90
44223;DHT22;29895;48.804;9.386;2023-10-08T00:16:07;12.40;99.90
44223;DHT22;29895;48.804;9.386;2023-10-08T00:18:38;12.50;99.90
44223;DHT22;29895;48.804;9.386;2023-10-08T00:21:05;12.40;99.90
44223;DHT22;29895;48.804;9.386;2023-10-08T00:23:37;12.50;99.90
44223;DHT22;29895;48.804;9.386;2023-10-08T00:26:08;12.40;99.90
44223;DHT22;29895;48.804;9.386;2023-10-08T00:28:34;12.40;99.90
44223;DHT22;29895;48.804;9.386;2023-10-08T00:31:04;12.40;99.90
44223;DHT22;29895;48.804;9.386;2023-10-08T00:33:31;12.30;99.90
44223;DHT22;29895;48.804;9.386;2023-10-08T00:35:57;12.30;99.90
44223;DHT22;29895;48.804;9.386;2023-10-08T00:38:23;12.20;99.90
44223;DHT22;29895;48.804;9.386;2023-10-08T00:40:51;12.20;99.90
44223;DHT22;29895;48.804;9.386;2023-10-08T00:43:33;12.30;99.90
44223;DHT22;29895;48.804;9.386;2023-10-08T00:46:01;12.20;99.90
44223;DHT22;29895;48.804;9.386;2023-10-08T00:48:27;12.20;99.90
44223;DHT22;29895;48.804;9.386;2023-10-08T00:50:56;12.10;99.90
44223;DHT22;29895;48.804;9.386;2023-10-08T00:53:36;12.10;99.90
44223;DHT22;29895;48.804;9.386;2023-10-08T00:56:05;12.10;99.90
44223;DHT22;29895;48.804;9.386;2023-10-08T00:58:39;12.10;99.90
44223;DHT22;29895;48.804;9.386;2023-10-08T01:01:06;12.00;99.90
44223;DHT22;29895;48.804;9.386;2023-10-08T01:03:36;12.00;99.90
44223;DHT22;29895;48.804;9.386;2023-10-08T01:06:04;12.00;99.90
44223;DHT22;29895;48.804;9.386;2023-10-08T01:08:35;12.00;99.90
44223;DHT22;29895;48.804;9.386;2023-10-08T01:11:24;12.10;99.90
44223;DHT22;29895;48.804;9.386;2023-10-08T01:14:11;12.00;99.90
44223;DHT22;29895;48.804;9.386;2023-10-08T01:16:37;12.00;99.90
44223;DHT22;29895;48.804;9.386;2023-10-08T01:19:04;12.00;99.90
44223;DHT22;29895;48.804;9.386;2023-10-08T01:21:30;12.00;99.90
44223;DHT22;29895;48.804;9.386;2023-10-08T01:24:05;11.90;99.90
44223;DHT22;29895;48.804;9.386;2023-10-08T01:26:35;11.90;99.90
44223;DHT22;29895;48.804;9.386;2023-10-08T01:29:11;11.90;99.90
44223;DHT22;29895;48.804;9.386;2023-10-08T01:31:45;11.80;99.90
44223;DHT22;29895;48.804;9.386;2023-10-08T01:34:11;11.80;99.90
44223;DHT22;29895;48.804;9.386;2023-10-08T01:36:41;11.80;99.90
44223;DHT22;29895;48.804;9.386;2023-10-08T01:39:10;11.90;99.90
44223;DHT22;29895;48.804;9.386;2023-10-08T01:41:43;11.90;99.90
44223;DHT22;29895;48.804;9.386;2023-10-08T01:44:09;11.80;99.90
44223;DHT22;29895;48.804;9.386;2023-10-08T01:46:35;11.80;99.90
44223;DHT22;29895;48.804;9.386;2023-10-08T01:49:01;11.80;99.90
44223;DHT22;29895;48.804;9.386;2023-10-08T01:51:34;11.70;99.90
44223;DHT22;29895;48.804;9.386;2023-10-08T01:54:12;11.70;99.90
44223;DHT22;29895;48.804;9.386;2023-10-08T01:56:43;11.60;99.90
44223;DHT22;29895;48.804;9.386;2023-10-08T01:59:14;11.60;99.90
44223;DHT22;29895;48.804;9.386;2023-10-08T02:01:41;11.50;99.90
44223;DHT22;29895;48.804;9.386;2023-10-08T02:04:08;11.50;99.90
44223;DHT22;29895;48.804;9.386;2023-10-08T02:06:35;11.40;99.90
44223;DHT22;29895;48.804;9.386;2023-10-08T02:09:02;11.40;99.90
44223;DHT22;29895;48.804;9.386;2023-10-08T02:11:53;11.40;99.90
44223;DHT22;29895;48.804;9.386;2023-10-08T02:14:20;11.30;99.90
44223;DHT22;29895;48.804;9.386;2023-10-08T02:16:46;11.20;99.90
44223;DHT22;29895;48.804;9.386;2023-10-08T02:19:13;11.20;99.90
44223;DHT22;29895;48.804;9.386;2023-10-08T02:21:39;11.10;99.90
44223;DHT22;29895;48.804;9.386;2023-10-08T02:24:08;11.10;99.90
44223;DHT22;29895;48.804;9.386;2023-10-08T02:26:36;11.10;99.90
44223;DHT22;29895;48.804;9.386;2023-10-08T02:29:02;11.00;99.90
44223;DHT22;29895;48.804;9.386;2023-10-08T02:31:31;10.90;99.90
44223;DHT22;29895;48.804;9.386;2023-10-08T02:33:57;11.00;99.90
44223;DHT22;29895;48.804;9.386;2023-10-08T02:36:24;10.90;99.90
44223;DHT22;29895;48.804;9.386;2023-10-08T02:38:50;10.90;99.90
44223;DHT22;29895;48.804;9.386;2023-10-08T02:41:16;10.90;99.90
44223;DHT22;29895;48.804;9.386;2023-10-08T02:43:42;10.90;99.90
44223;DHT22;29895;48.804;9.386;2023-10-08T02:46:10;10.90;99.90
44223;DHT22;29895;48.804;9.386;2023-10-08T02:48:40;10.90;99.90
44223;DHT22;29895;48.804;9.386;2023-10-08T02:51:06;10.80;99.90
44223;DHT22;29895;48.804;9.386;2023-10-08T02:53:41;10.70;99.90
44223;DHT22;29895;48.804;9.386;2023-10-08T02:56:09;10.50;99.90
44223;DHT22;29895;48.804;9.386;2023-10-08T02:58:42;10.60;99.90
44223;DHT22;29895;48.804;9.386;2023-10-08T03:01:12;10.70;99.90
44223;DHT22;29895;48.804;9.386;2023-10-08T03:03:41;10.70;99.90
44223;DHT22;29895;48.804;9.386;2023-10-08T03:06:08;10.60;99.90
44223;DHT22;29895;48.804;9.386;2023-10-08T03:08:38;10.50;99.90
44223;DHT22;29895;48.804;9.386;2023-10-08T03:11:09;10.50;99.90
44223;DHT22;29895;48.804;9.386;2023-10-08T03:13:45;10.40;99.90
44223;DHT22;29895;48.804;9.386;2023-10-08T03:16:17;10.30;99.90
44223;DHT22;29895;48.804;9.386;2023-10-08T03:18:47;10.30;99.90
44223;DHT22;29895;48.804;9.386;2023-10-08T03:21:16;10.30;99.90
44223;DHT22;29895;48.804;9.386;2023-10-08T03:24:07;10.20;99.90
44223;DHT22;29895;48.804;9.386;2023-10-08T03:26:57;10.20;99.90
44223;DHT22;29895;48.804;9.386;2023-10-08T03:29:35;10.10;99.90
44223;DHT22;29895;48.804;9.386;2023-10-08T03:32:10;10.10;99.90
44223;DHT22;29895;48.804;9.386;2023-10-08T03:34:47;10.20;99.90
44223;DHT22;29895;48.804;9.386;2023-10-08T03:37:17;10.20;99.90
44223;DHT22;29895;48.804;9.386;2023-10-08T03:39:47;10.20;99.90
44223;DHT22;29895;48.804;9.386;2023-10-08T03:42:23;10.20;99.90
44223;DHT22;29895;48.804;9.386;2023-10-08T03:44:50;10.20;99.90
44223;DHT22;29895;48.804;9.386;2023-10-08T03:47:24;10.20;99.90
44223;DHT22;29895;48.804;9.386;2023-10-08T03:49:52;10.20;99.90
44223;DHT22;29895;48.804;9.386;2023-10-08T03:52:19;10.20;99.90
44223;DHT22;29895;48.804;9.386;2023-10-08T03:54:51;10.20;99.90
44223;DHT22;29895;48.804;9.386;2023-10-08T03:57:38;10.20;99.90
44223;DHT22;29895;48.804;9.386;2023-10-08T04:00:11;10.10;99.90
44223;DHT22;29895;48.804;9.386;2023-10-08T04:02:57;10.10;99.90
44223;DHT22;29895;48.804;9.386;2023-10-08T04:05:27;10.00;99.90
44223;DHT22;29895;48.804;9.386;2023-10-08T04:07:58;10.00;99.90
44223;DHT22;29895;48.804;9.386;2023-10-08T04:10:23;10.10;99.90
44223;DHT22;29895;48.804;9.386;2023-10-08T04:13:15;10.10;99.90
44223;DHT22;29895;48.804;9.386;2023-10-08T04:15:41;10.00;99.90
44223;DHT22;29895;48.804;9.386;2023-10-08T04:18:11;10.10;99.90
44223;DHT22;29895;48.804;9.386;2023-10-08T04:20:38;10.00;99.90
44223;DHT22;29895;48.804;9.386;2023-10-08T04:23:05;10.00;99.90
44223;DHT22;29895;48.804;9.386;2023-10-08T04:25:32;10.10;99.90
44223;DHT22;29895;48.804;9.386;2023-10-08T04:27:59;10.10;99.90
44223;DHT22;29895;48.804;9.386;2023-10-08T04:30:35;10.10;99.90
44223;DHT22;29895;48.804;9.386;2023-10-08T04:33:05;10.00;99.90
44223;DHT22;29895;48.804;9.386;2023-10-08T04:35:42;10.00;99.90
44223;DHT22;29895;48.804;9.386;2023-10-08T04:38:20;10.00;99.90
44223;DHT22;29895;48.804;9.386;2023-10-08T04:40:52;9.90;99.90
44223;DHT22;29895;48.804;9.386;2023-10-08T04:43:23;9.90;99.90
44223;DHT22;29895;48.804;9.386;2023-10-08T04:45:54;9.90;99.90
44223;DHT22;29895;48.804;9.386;2023-10-08T04:48:22;9.80;99.90
44223;DHT22;29895;48.804;9.386;2023-10-08T04:50:58;9.80;99.90
44223;DHT22;29895;48.804;9.386;2023-10-08T04:53:32;9.90;99.90
44223;DHT22;29895;48.804;9.386;2023-10-08T04:56:05;9.80;99.90
44223;DHT22;29895;48.804;9.386;2023-10-08T04:58:34;9.80;99.90
44223;DHT22;29895;48.804;9.386;2023-10-08T05:01:03;9.80;99.90
44223;DHT22;29895;48.804;9.386;2023-10-08T05:06:26;9.80;99.90
44223;DHT22;29895;48.804;9.386;2023-10-08T05:09:13;9.80;99.90
44223;DHT22;29895;48.804;9.386;2023-10-08T05:11:52;9.80;99.90
44223;DHT22;29895;48.804;9.386;2023-10-08T05:14:24;9.90;99.90
44223;DHT22;29895;48.804;9.386;2023-10-08T05:17:01;9.80;99.90
44223;DHT22;29895;48.804;9.386;2023-10-08T05:19:38;9.80;99.90
44223;DHT22;29895;48.804;9.386;2023-10-08T05:22:16;9.90;99.90
44223;DHT22;29895;48.804;9.386;2023-10-08T05:24:55;9.90;99.90
44223;DHT22;29895;48.804;9.386;2023-10-08T05:27:44;10.00;99.90
44223;DHT22;29895;48.804;9.386;2023-10-08T05:30:13;10.10;99.90
44223;DHT22;29895;48.804;9.386;2023-10-08T05:32:43;10.20;99.90
44223;DHT22;29895;48.804;9.386;2023-10-08T05:35:27;10.20;99.90
44223;DHT22;29895;48.804;9.386;2023-10-08T05:38:05;10.10;99.90
44223;DHT22;29895;48.804;9.386;2023-10-08T05:40:51;10.10;99.90
44223;DHT22;29895;48.804;9.386;2023-10-08T05:43:36;10.00;99.90
44223;DHT22;29895;48.804;9.386;2023-10-08T05:46:05;10.00;99.90
44223;DHT22;29895;48.804;9.386;2023-10-08T05:48:52;9.90;99.90
44223;DHT22;29895;48.804;9.386;2023-10-08T05:51:37;10.00;99.90
44223;DHT22;29895;48.804;9.386;2023-10-08T05:54:16;10.00;99.90
44223;DHT22;29895;48.804;9.386;2023-10-08T05:57:04;9.90;99.90
44223;DHT22;29895;48.804;9.386;2023-10-08T05:59:45;9.90;99.90
44223;DHT22;29895;48.804;9.386;2023-10-08T06:05:00;9.90;99.90
44223;DHT22;29895;48.804;9.386;2023-10-08T06:07:45;10.00;99.90
44223;DHT22;29895;48.804;9.386;2023-10-08T06:10:32;10.10;99.90
44223;DHT22;29895;48.804;9.386;2023-10-08T06:13:08;10.10;99.90
44223;DHT22;29895;48.804;9.386;2023-10-08T06:15:39;10.20;99.90
44223;DHT22;29895;48.804;9.386;2023-10-08T06:18:18;10.40;99.90
44223;DHT22;29895;48.804;9.386;2023-10-08T06:20:45;10.70;99.90
44223;DHT22;29895;48.804;9.386;2023-10-08T06:23:11;10.90;99.90
44223;DHT22;29895;48.804;9.386;2023-10-08T06:25:39;11.00;99.90
44223;DHT22;29895;48.804;9.386;2023-10-08T06:28:16;11.00;99.90
44223;DHT22;29895;48.804;9.386;2023-10-08T06:30:49;11.00;99.90
44223;DHT22;29895;48.804;9.386;2023-10-08T06:33:15;10.90;99.90
44223;DHT22;29895;48.804;9.386;2023-10-08T06:35:42;10.80;99.90
44223;DHT22;29895;48.804;9.386;2023-10-08T06:38:10;10.80;99.90
44223;DHT22;29895;48.804;9.386;2023-10-08T06:40:37;10.80;99.90
44223;DHT22;29895;48.804;9.386;2023-10-08T06:43:03;10.80;99.90
44223;DHT22;29895;48.804;9.386;2023-10-08T06:45:39;10.80;99.90
44223;DHT22;29895;48.804;9.386;2023-10-08T06:48:06;10.80;99.90
44223;DHT22;29895;48.804;9.386;2023-10-08T06:50:32;10.90;99.90
44223;DHT22;29895;48.804;9.386;2023-10-08T06:53:03;11.00;99.90
44223;DHT22;29895;48.804;9.386;2023-10-08T06:55:33;11.10;99.90
44223;DHT22;29895;48.804;9.386;2023-10-08T06:58:01;11.10;99.90
44223;DHT22;29895;48.804;9.386;2023-10-08T07:00:47;11.20;99.90
44223;DHT22;29895;48.804;9.386;2023-10-08T07:03:15;11.20;99.90
44223;DHT22;29895;48.804;9.386;2023-10-08T07:05:46;11.30;99.90
44223;DHT22;29895;48.804;9.386;2023-10-08T07:08:30;11.40;99.90
44223;DHT22;29895;48.804;9.386;2023-10-08T07:11:03;11.50;99.90
44223;DHT22;29895;48.804;9.386;2023-10-08T07:13:33;11.50;99.90
44223;DHT22;29895;48.804;9.386;2023-10-08T07:16:01;11.70;99.90
44223;DHT22;29895;48.804;9.386;2023-10-08T07:18:29;11.80;99.90
44223;DHT22;29895;48.804;9.386;2023-10-08T07:20:57;11.80;99.90
44223;DHT22;29895;48.804;9.386;2023-10-08T07:23:27;11.90;99.90
44223;DHT22;29895;48.804;9.386;2023-10-08T07:25:59;12.00;99.90
44223;DHT22;29895;48.804;9.386;2023-10-08T07:28:37;12.20;99.90
44223;DHT22;29895;48.804;9.386;2023-10-08T07:31:05;12.50;99.90
44223;DHT22;29895;48.804;9.386;2023-10-08T07:33:35;12.70;99.90
44223;DHT22;29895;48.804;9.386;2023-10-08T07:36:02;12.90;99.90
44223;DHT22;29895;48.804;9.386;2023-10-08T07:38:41;13.00;99.90
44223;DHT22;29895;48.804;9.386;2023-10-08T07:41:11;13.00;99.90
44223;DHT22;29895;48.804;9.386;2023-10-08T07:43:43;13.10;99.90
44223;DHT22;29895;48.804;9.386;2023-10-08T07:46:10;13.10;99.90
44223;DHT22;29895;48.804;9.386;2023-10-08T07:48:36;13.10;99.90
44223;DHT22;29895;48.804;9.386;2023-10-08T07:51:07;13.10;99.90
44223;DHT22;29895;48.804;9.386;2023-10-08T07:53:33;13.10;99.90
44223;DHT22;29895;48.804;9.386;2023-10-08T07:56:06;13.20;99.90
44223;DHT22;29895;48.804;9.386;2023-10-08T07:58:33;13.40;99.90
44223;DHT22;29895;48.804;9.386;2023-10-08T08:01:03;13.60;99.90
44223;DHT22;29895;48.804;9.386;2023-10-08T08:03:35;13.80;99.90
44223;DHT22;29895;48.804;9.386;2023-10-08T08:06:05;13.90;99.90
44223;DHT22;29895;48.804;9.386;2023-10-08T08:08:35;14.10;99.90
44223;DHT22;29895;48.804;9.386;2023-10-08T08:11:06;14.10;99.90
44223;DHT22;29895;48.804;9.386;2023-10-08T08:13:41;13.90;99.90
44223;DHT22;29895;48.804;9.386;2023-10-08T08:16:14;13.70;99.90
44223;DHT22;29895;48.804;9.386;2023-10-08T08:18:52;13.60;99.90
44223;DHT22;29895;48.804;9.386;2023-10-08T08:21:20;13.60;99.90
44223;DHT22;29895;48.804;9.386;2023-10-08T08:23:49;13.80;99.90
44223;DHT22;29895;48.804;9.386;2023-10-08T08:26:23;14.10;99.90
44223;DHT22;29895;48.804;9.386;2023-10-08T08:29:01;14.60;99.90
44223;DHT22;29895;48.804;9.386;2023-10-08T08:31:30;15.10;99.90
44223;DHT22;29895;48.804;9.386;2023-10-08T08:34:01;15.60;99.90
44223;DHT22;29895;48.804;9.386;2023-10-08T08:36:29;16.00;99.90
44223;DHT22;29895;48.804;9.386;2023-10-08T08:38:57;16.40;99.90
44223;DHT22;29895;48.804;9.386;2023-10-08T08:41:23;16.40;99.90
44223;DHT22;29895;48.804;9.386;2023-10-08T08:43:53;16.20;99.90
44223;DHT22;29895;48.804;9.386;2023-10-08T08:46:34;16.30;99.90
44223;DHT22;29895;48.804;9.386;2023-10-08T08:49:05;16.50;99.90
44223;DHT22;29895;48.804;9.386;2023-10-08T08:51:34;16.60;99.90
44223;DHT22;29895;48.804;9.386;2023-10-08T08:54:04;16.80;99.90
44223;DHT22;29895;48.804;9.386;2023-10-08T08:56:37;16.90;99.90
44223;DHT22;29895;48.804;9.386;2023-10-08T08:59:06;17.10;99.90
44223;DHT22;29895;48.804;9.386;2023-10-08T09:01:32;17.40;99.90
44223;DHT22;29895;48.804;9.386;2023-10-08T09:04:00;17.80;99.90
44223;DHT22;29895;48.804;9.386;2023-10-08T09:06:27;18.30;99.90
44223;DHT22;29895;48.804;9.386;2023-10-08T09:08:53;18.50;99.90
44223;DHT22;29895;48.804;9.386;2023-10-08T09:11:21;18.80;99.90
44223;DHT22;29895;48.804;9.386;2023-10-08T09:13:47;19.00;99.90
44223;DHT22;29895;48.804;9.386;2023-10-08T09:16:16;19.30;99.90
44223;DHT22;29895;48.804;9.386;2023-10-08T09:18:47;19.70;99.90
44223;DHT22;29895;48.804;9.386;2023-10-08T09:21:19;19.90;99.90
44223;DHT22;29895;48.804;9.386;2023-10-08T09:23:49;20.20;99.90
44223;DHT22;29895;48.804;9.386;2023-10-08T09:26:24;20.50;99.90
44223;DHT22;29895;48.804;9.386;2023-10-08T09:28:50;20.80;99.90
44223;DHT22;29895;48.804;9.386;2023-10-08T09:31:17;20.90;99.90
44223;DHT22;29895;48.804;9.386;2023-10-08T09:33:53;21.00;99.90
44223;DHT22;29895;48.804;9.386;2023-10-08T09:36:19;20.90;99.90
44223;DHT22;29895;48.804;9.386;2023-10-08T09:38:48;21.20;99.90
44223;DHT22;29895;48.804;9.386;2023-10-08T09:41:15;21.60;99.80
44223;DHT22;29895;48.804;9.386;2023-10-08T09:43:41;21.70;99.10
44223;DHT22;29895;48.804;9.386;2023-10-08T09:46:19;21.90;99.20
44223;DHT22;29895;48.804;9.386;2023-10-08T09:48:50;21.90;99.30
44223;DHT22;29895;48.804;9.386;2023-10-08T09:51:19;22.00;99.20
44223;DHT22;29895;48.804;9.386;2023-10-08T09:56:18;22.20;99.10
44223;DHT22;29895;48.804;9.386;2023-10-08T09:58:46;22.10;99.40
44223;DHT22;29895;48.804;9.386;2023-10-08T10:01:14;22.10;99.60
44223;DHT22;29895;48.804;9.386;2023-10-08T10:03:43;21.90;99.70
44223;DHT22;29895;48.804;9.386;2023-10-08T10:06:17;21.80;99.90
44223;DHT22;29895;48.804;9.386;2023-10-08T10:08:44;21.90;99.90
44223;DHT22;29895;48.804;9.386;2023-10-08T10:11:10;22.00;99.90
44223;DHT22;29895;48.804;9.386;2023-10-08T10:13:41;21.70;99.80
44223;DHT22;29895;48.804;9.386;2023-10-08T10:16:07;21.50;99.90
44223;DHT22;29895;48.804;9.386;2023-10-08T10:18:34;21.30;99.90
44223;DHT22;29895;48.804;9.386;2023-10-08T10:21:27;21.30;99.90
44223;DHT22;29895;48.804;9.386;2023-10-08T10:23:54;21.50;99.90
44223;DHT22;29895;48.804;9.386;2023-10-08T10:26:35;21.40;99.90
44223;DHT22;29895;48.804;9.386;2023-10-08T10:31:43;21.60;99.90
44223;DHT22;29895;48.804;9.386;2023-10-08T10:34:11;21.50;99.90
44223;DHT22;29895;48.804;9.386;2023-10-08T10:36:40;21.70;99.90
44223;DHT22;29895;48.804;9.386;2023-10-08T10:39:07;21.90;99.80
44223;DHT22;29895;48.804;9.386;2023-10-08T10:41:45;22.00;99.70
44223;DHT22;29895;48.804;9.386;2023-10-08T10:44:15;22.10;99.60
44223;DHT22;29895;48.804;9.386;2023-10-08T10:46:45;22.20;99.90
44223;DHT22;29895;48.804;9.386;2023-10-08T10:49:20;22.40;99.90
44223;DHT22;29895;48.804;9.386;2023-10-08T10:51:57;22.60;99.70
44223;DHT22;29895;48.804;9.386;2023-10-08T10:54:26;22.60;99.30
44223;DHT22;29895;48.804;9.386;2023-10-08T10:57:02;22.60;99.60
44223;DHT22;29895;48.804;9.386;2023-10-08T10:59:34;22.70;99.90
44223;DHT22;29895;48.804;9.386;2023-10-08T11:02:04;22.60;99.70
44223;DHT22;29895;48.804;9.386;2023-10-08T11:05:02;22.60;99.60
44223;DHT22;29895;48.804;9.386;2023-10-08T11:07:35;22.40;99.90
44223;DHT22;29895;48.804;9.386;2023-10-08T11:10:04;22.60;99.90
44223;DHT22;29895;48.804;9.386;2023-10-08T11:12:35;22.90;99.90
44223;DHT22;29895;48.804;9.386;2023-10-08T11:15:13;23.20;99.50
44223;DHT22;29895;48.804;9.386;2023-10-08T11:17:44;23.50;99.10
44223;DHT22;29895;48.804;9.386;2023-10-08T11:20:28;23.70;98.50
44223;DHT22;29895;48.804;9.386;2023-10-08T11:22:54;23.60;98.10
44223;DHT22;29895;48.804;9.386;2023-10-08T11:25:24;23.70;98.40
44223;DHT22;29895;48.804;9.386;2023-10-08T11:27:56;23.60;98.70
44223;DHT22;29895;48.804;9.386;2023-10-08T11:30:27;23.40;98.70
44223;DHT22;29895;48.804;9.386;2023-10-08T11:32:57;23.20;98.50
44223;DHT22;29895;48.804;9.386;2023-10-08T11:35:25;23.40;98.70
44223;DHT22;29895;48.804;9.386;2023-10-08T11:37:57;23.60;98.50
44223;DHT22;29895;48.804;9.386;2023-10-08T11:40:24;23.80;97.90
44223;DHT22;29895;48.804;9.386;2023-10-08T11:43:15;23.90;97.70
44223;DHT22;29895;48.804;9.386;2023-10-08T11:45:44;23.90;97.80
44223;DHT22;29895;48.804;9.386;2023-10-08T11:48:16;24.00;97.90
44223;DHT22;29895;48.804;9.386;2023-10-08T11:50:48;23.80;97.30
44223;DHT22;29895;48.804;9.386;2023-10-08T11:53:16;23.70;98.00
44223;DHT22;29895;48.804;9.386;2023-10-08T11:55:44;23.60;98.20
44223;DHT22;29895;48.804;9.386;2023-10-08T11:58:10;23.50;98.00
44223;DHT22;29895;48.804;9.386;2023-10-08T12:00:40;23.40;98.40
44223;DHT22;29895;48.804;9.386;2023-10-08T12:03:17;23.40;98.10
44223;DHT22;29895;48.804;9.386;2023-10-08T12:05:47;23.50;98.20
44223;DHT22;29895;48.804;9.386;2023-10-08T12:08:18;23.70;97.80
44223;DHT22;29895;48.804;9.386;2023-10-08T12:10:46;23.70;97.90
44223;DHT22;29895;48.804;9.386;2023-10-08T12:13:13;23.90;97.70
44223;DHT22;29895;48.804;9.386;2023-10-08T12:15:40;24.00;98.00
44223;DHT22;29895;48.804;9.386;2023-10-08T12:18:07;23.90;97.90
44223;DHT22;29895;48.804;9.386;2023-10-08T12:20:52;23.90;98.10
44223;DHT22;29895;48.804;9.386;2023-10-08T12:23:19;23.90;97.90
44223;DHT22;29895;48.804;9.386;2023-10-08T12:25:52;23.80;97.70
44223;DHT22;29895;48.804;9.386;2023-10-08T12:28:24;23.70;98.00
44223;DHT22;29895;48.804;9.386;2023-10-08T12:30:50;23.70;98.40
44223;DHT22;29895;48.804;9.386;2023-10-08T12:33:21;23.70;98.30
44223;DHT22;29895;48.804;9.386;2023-10-08T12:35:49;23.90;98.50
44223;DHT22;29895;48.804;9.386;2023-10-08T12:38:19;23.90;98.30
44223;DHT22;29895;48.804;9.386;2023-10-08T12:40:51;24.00;98.60
44223;DHT22;29895;48.804;9.386;2023-10-08T12:43:24;24.10;98.40
44223;DHT22;29895;48.804;9.386;2023-10-08T12:45:53;24.20;97.80
44223;DHT22;29895;48.804;9.386;2023-10-08T12:48:23;24.30;98.10
44223;DHT22;29895;48.804;9.386;2023-10-08T12:50:50;24.40;97.90
44223;DHT22;29895;48.804;9.386;2023-10-08T12:53:22;24.50;97.50
44223;DHT22;29895;48.804;9.386;2023-10-08T12:56:08;24.60;97.50
44223;DHT22;29895;48.804;9.386;2023-10-08T12:58:41;24.60;96.90
44223;DHT22;29895;48.804;9.386;2023-10-08T13:01:12;24.60;96.70
44223;DHT22;29895;48.804;9.386;2023-10-08T13:03:39;24.40;96.40
44223;DHT22;29895;48.804;9.386;2023-10-08T13:06:16;24.30;96.50
44223;DHT22;29895;48.804;9.386;2023-10-08T13:08:49;24.30;96.70
44223;DHT22;29895;48.804;9.386;2023-10-08T13:11:15;24.20;96.60
44223;DHT22;29895;48.804;9.386;2023-10-08T13:13:41;24.00;96.70
44223;DHT22;29895;48.804;9.386;2023-10-08T13:16:07;23.80;97.00
44223;DHT22;29895;48.804;9.386;2023-10-08T13:18:33;23.90;96.70
44223;DHT22;29895;48.804;9.386;2023-10-08T13:20:59;24.00;96.00
44223;DHT22;29895;48.804;9.386;2023-10-08T13:23:26;23.80;95.60
44223;DHT22;29895;48.804;9.386;2023-10-08T13:25:53;23.70;95.90
44223;DHT22;29895;48.804;9.386;2023-10-08T13:28:22;23.70;95.90
44223;DHT22;29895;48.804;9.386;2023-10-08T13:30:49;23.70;95.70
44223;DHT22;29895;48.804;9.386;2023-10-08T13:33:23;23.70;95.90
44223;DHT22;29895;48.804;9.386;2023-10-08T13:35:50;23.70;95.60
44223;DHT22;29895;48.804;9.386;2023-10-08T13:38:19;23.70;95.90
44223;DHT22;29895;48.804;9.386;2023-10-08T13:40:49;23.70;96.30
44223;DHT22;29895;48.804;9.386;2023-10-08T13:43:34;23.70;96.40
44223;DHT22;29895;48.804;9.386;2023-10-08T13:46:05;23.70;96.60
44223;DHT22;29895;48.804;9.386;2023-10-08T13:48:33;23.80;96.60
44223;DHT22;29895;48.804;9.386;2023-10-08T13:51:00;23.90;96.60
44223;DHT22;29895;48.804;9.386;2023-10-08T13:53:26;23.80;96.70
44223;DHT22;29895;48.804;9.386;2023-10-08T13:55:56;23.80;96.80
44223;DHT22;29895;48.804;9.386;2023-10-08T13:58:22;23.70;97.10
44223;DHT22;29895;48.804;9.386;2023-10-08T14:00:48;23.70;96.60
44223;DHT22;29895;48.804;9.386;2023-10-08T14:03:16;23.70;97.00
44223;DHT22;29895;48.804;9.386;2023-10-08T14:05:47;23.80;97.10
44223;DHT22;29895;48.804;9.386;2023-10-08T14:08:19;23.80;97.10
44223;DHT22;29895;48.804;9.386;2023-10-08T14:10:45;23.80;97.50
44223;DHT22;29895;48.804;9.386;2023-10-08T14:13:15;23.80;97.90
44223;DHT22;29895;48.804;9.386;2023-10-08T14:15:46;23.70;97.90
44223;DHT22;29895;48.804;9.386;2023-10-08T14:18:14;23.60;98.10
44223;DHT22;29895;48.804;9.386;2023-10-08T14:20:44;23.50;98.60
44223;DHT22;29895;48.804;9.386;2023-10-08T14:23:13;23.30;98.40
44223;DHT22;29895;48.804;9.386;2023-10-08T14:25:42;23.30;98.40
44223;DHT22;29895;48.804;9.386;2023-10-08T14:28:11;23.20;98.20
44223;DHT22;29895;48.804;9.386;2023-10-08T14:30:50;23.20;98.40
44223;DHT22;29895;48.804;9.386;2023-10-08T14:33:21;23.20;98.40
44223;DHT22;29895;48.804;9.386;2023-10-08T14:35:52;23.20;98.20
44223;DHT22;29895;48.804;9.386;2023-10-08T14:38:36;23.20;98.30
44223;DHT22;29895;48.804;9.386;2023-10-08T14:41:20;23.20;98.40
44223;DHT22;29895;48.804;9.386;2023-10-08T14:44:05;23.20;98.40
44223;DHT22;29895;48.804;9.386;2023-10-08T14:46:32;23.20;98.50
44223;DHT22;29895;48.804;9.386;2023-10-08T14:49:00;23.10;98.90
44223;DHT22;29895;48.804;9.386;2023-10-08T14:51:27;23.00;99.10
44223;DHT22;29895;48.804;9.386;2023-10-08T14:53:55;22.90;98.70
44223;DHT22;29895;48.804;9.386;2023-10-08T14:56:21;22.90;98.50
44223;DHT22;29895;48.804;9.386;2023-10-08T14:58:48;22.90;98.90
44223;DHT22;29895;48.804;9.386;2023-10-08T15:01:14;22.90;99.70
44223;DHT22;29895;48.804;9.386;2023-10-08T15:03:40;22.90;99.40
44223;DHT22;29895;48.804;9.386;2023-10-08T15:06:06;22.90;99.60
44223;DHT22;29895;48.804;9.386;2023-10-08T15:08:33;22.80;99.90
44223;DHT22;29895;48.804;9.386;2023-10-08T15:10:59;22.90;99.90
44223;DHT22;29895;48.804;9.386;2023-10-08T15:13:26;22.90;99.90
44223;DHT22;29895;48.804;9.386;2023-10-08T15:15:52;22.80;99.90
44223;DHT22;29895;48.804;9.386;2023-10-08T15:18:17;22.80;99.90
44223;DHT22;29895;48.804;9.386;2023-10-08T15:20:44;22.80;99.90
44223;DHT22;29895;48.804;9.386;2023-10-08T15:23:10;22.90;99.90
44223;DHT22;29895;48.804;9.386;2023-10-08T15:25:37;22.90;99.90
44223;DHT22;29895;48.804;9.386;2023-10-08T15:28:04;23.00;99.90
44223;DHT22;29895;48.804;9.386;2023-10-08T15:30:30;23.00;99.90
44223;DHT22;29895;48.804;9.386;2023-10-08T15:32:57;22.90;99.90
44223;DHT22;29895;48.804;9.386;2023-10-08T15:35:23;22.90;99.90
44223;DHT22;29895;48.804;9.386;2023-10-08T15:37:50;22.90;99.90
44223;DHT22;29895;48.804;9.386;2023-10-08T15:40:16;22.80;99.90
44223;DHT22;29895;48.804;9.386;2023-10-08T15:42:53;22.70;99.80
44223;DHT22;29895;48.804;9.386;2023-10-08T15:45:20;22.70;99.90
44223;DHT22;29895;48.804;9.386;2023-10-08T15:47:46;22.60;99.90
44223;DHT22;29895;48.804;9.386;2023-10-08T15:50:12;22.50;99.90
44223;DHT22;29895;48.804;9.386;2023-10-08T15:52:38;22.50;99.90
44223;DHT22;29895;48.804;9.386;2023-10-08T15:55:05;22.40;99.90
44223;DHT22;29895;48.804;9.386;2023-10-08T15:57:31;22.40;99.90
44223;DHT22;29895;48.804;9.386;2023-10-08T15:59:57;22.30;99.90
44223;DHT22;29895;48.804;9.386;2023-10-08T16:02:22;22.30;99.90
44223;DHT22;29895;48.804;9.386;2023-10-08T16:04:48;22.10;99.90
44223;DHT22;29895;48.804;9.386;2023-10-08T16:07:14;22.10;99.90